Time;durP1;ratioP1;P1;durP2;ratioP2;P2;SDS_P1;SDS_P2;PMS_P1;PMS_P2;Temp;Humidity;BMP_temperature;BMP_pressure;BME280_temperature;BME280_humidity;BME280_pressure;Samples;Min_cycle;Max_cycle;Signal;HPM_P1;HPM_P2
2023/07/30 00:00:32;;;;;;;11.15;5.18;;;15.50;99.90;;;;;;5048965;28;20728;-81
2023/07/30 00:02:57;;;;;;;9.75;4.93;;;15.50;99.90;;;;;;5035154;28;20056;-81
2023/07/30 00:05:23;;;;;;;8.25;3.90;;;15.50;99.90;;;;;;5035718;28;20121;-80
2023/07/30 00:07:49;;;;;;;18.65;4.43;;;15.40;99.90;;;;;;5053131;28;20029;-80
2023/07/30 00:10:14;;;;;;;12.50;4.05;;;15.40;99.90;;;;;;5057437;28;20068;-81
2023/07/30 00:12:40;;;;;;;11.52;4.05;;;15.40;99.90;;;;;;5052991;28;20051;-80
2023/07/30 00:15:07;;;;;;;12.88;4.50;;;15.40;99.90;;;;;;5052603;28;20552;-81
2023/07/30 00:17:32;;;;;;;14.02;4.30;;;15.40;99.90;;;;;;5056519;28;20060;-80
2023/07/30 00:19:58;;;;;;;17.27;4.78;;;15.40;99.90;;;;;;5048679;28;20145;-80
2023/07/30 00:22:23;;;;;;;13.77;4.40;;;15.40;99.90;;;;;;5052952;28;20151;-80
2023/07/30 00:24:49;;;;;;;16.35;5.20;;;15.50;99.90;;;;;;5050823;28;20577;-81
2023/07/30 00:27:14;;;;;;;13.68;4.57;;;15.40;99.90;;;;;;5053113;28;20068;-81
2023/07/30 00:29:40;;;;;;;19.13;5.75;;;15.40;99.90;;;;;;5051408;28;20177;-80
2023/07/30 00:32:06;;;;;;;12.85;4.55;;;15.40;99.90;;;;;;5052362;28;20031;-80
2023/07/30 00:34:31;;;;;;;16.63;4.50;;;15.40;99.90;;;;;;5053296;28;20040;-80
2023/07/30 00:36:57;;;;;;;11.40;4.13;;;15.40;99.90;;;;;;5051507;28;20045;-81
2023/07/30 00:39:22;;;;;;;12.35;3.75;;;15.40;99.90;;;;;;5053791;28;20048;-81
2023/07/30 00:41:48;;;;;;;12.80;4.18;;;15.30;99.90;;;;;;5056533;28;20553;-81
2023/07/30 00:44:13;;;;;;;13.18;4.35;;;15.30;99.90;;;;;;5053423;28;20045;-81
2023/07/30 00:46:40;;;;;;;19.85;5.32;;;15.30;99.90;;;;;;5055158;28;20813;-80
2023/07/30 00:49:05;;;;;;;15.55;4.75;;;15.30;99.90;;;;;;5053161;28;20036;-80
2023/07/30 00:51:33;;;;;;;20.33;6.10;;;15.30;99.90;;;;;;5051169;28;20037;-80
2023/07/30 00:53:59;;;;;;;18.55;5.70;;;15.30;99.90;;;;;;5055566;28;20052;-81
2023/07/30 00:56:25;;;;;;;19.15;4.90;;;15.30;99.90;;;;;;5055470;28;20434;-80
2023/07/30 00:58:52;;;;;;;21.02;5.30;;;15.30;99.90;;;;;;5054339;28;20093;-81
2023/07/30 01:01:17;;;;;;;14.95;4.55;;;15.30;99.90;;;;;;5051763;28;20041;-80
2023/07/30 01:03:43;;;;;;;15.73;4.82;;;15.40;99.90;;;;;;5053961;28;20075;-80
2023/07/30 01:06:09;;;;;;;17.58;4.90;;;15.20;99.90;;;;;;5051017;28;20044;-81
2023/07/30 01:08:35;;;;;;;18.30;5.15;;;15.20;99.90;;;;;;5051289;28;20049;-81
2023/07/30 01:11:02;;;;;;;13.57;4.47;;;15.20;99.90;;;;;;5053877;28;20044;-81
2023/07/30 01:13:28;;;;;;;18.52;4.90;;;15.20;99.90;;;;;;5052786;28;20056;-80
2023/07/30 01:15:54;;;;;;;16.77;5.30;;;15.20;99.90;;;;;;5053143;28;20163;-80
2023/07/30 01:18:20;;;;;;;17.95;4.97;;;15.20;99.90;;;;;;5052458;28;20049;-80
2023/07/30 01:20:45;;;;;;;18.75;5.82;;;15.20;99.90;;;;;;5052920;28;20040;-80
2023/07/30 01:23:11;;;;;;;16.85;5.57;;;15.20;99.90;;;;;;5056287;28;20699;-81
2023/07/30 01:25:37;;;;;;;17.90;5.20;;;15.20;99.90;;;;;;5054725;28;20407;-80
2023/07/30 01:28:05;;;;;;;23.85;6.60;;;15.20;99.90;;;;;;5055207;28;20037;-81
2023/07/30 01:30:39;;;;;;;16.25;4.88;;;15.20;99.90;;;;;;5055428;28;20041;-81
2023/07/30 01:33:05;;;;;;;19.02;5.07;;;15.20;99.90;;;;;;5046719;28;20047;-80
2023/07/30 01:35:32;;;;;;;12.60;4.32;;;15.20;99.90;;;;;;5050920;28;20120;-81
2023/07/30 01:37:58;;;;;;;19.65;4.45;;;15.20;99.90;;;;;;5057370;28;20439;-81
2023/07/30 01:40:24;;;;;;;15.82;5.15;;;15.20;99.90;;;;;;5056347;28;20044;-81
2023/07/30 01:42:50;;;;;;;19.92;5.53;;;15.10;99.90;;;;;;5056807;28;20044;-81
2023/07/30 01:45:15;;;;;;;13.38;4.03;;;15.10;99.90;;;;;;5053216;28;20039;-81
2023/07/30 01:47:41;;;;;;;16.70;4.50;;;15.10;99.90;;;;;;5039832;28;20036;-81
2023/07/30 01:50:07;;;;;;;12.93;4.90;;;15.10;99.90;;;;;;5058309;28;20475;-80
2023/07/30 01:52:33;;;;;;;12.68;4.22;;;15.10;99.90;;;;;;5057206;28;20064;-80
2023/07/30 01:55:00;;;;;;;20.05;4.80;;;15.10;99.90;;;;;;5054680;28;20053;-81
2023/07/30 01:57:26;;;;;;;10.38;3.83;;;15.00;99.90;;;;;;5055617;28;20040;-80
2023/07/30 01:59:51;;;;;;;18.27;6.30;;;15.10;99.90;;;;;;5058428;28;20041;-81
2023/07/30 02:02:17;;;;;;;22.00;4.95;;;15.00;99.90;;;;;;5057445;28;20037;-80
2023/07/30 02:04:43;;;;;;;18.55;4.88;;;15.00;99.90;;;;;;5053516;28;20045;-80
2023/07/30 02:07:08;;;;;;;10.77;3.95;;;15.00;99.90;;;;;;5056982;28;20033;-81
2023/07/30 02:09:34;;;;;;;12.65;3.70;;;14.90;99.90;;;;;;5053887;28;20533;-80
2023/07/30 02:11:59;;;;;;;16.10;4.60;;;14.90;99.90;;;;;;5060523;28;20392;-80
2023/07/30 02:14:25;;;;;;;13.80;4.25;;;15.00;99.90;;;;;;5055393;28;20133;-81
2023/07/30 02:16:50;;;;;;;14.65;4.13;;;14.90;99.90;;;;;;5056469;28;20049;-81
2023/07/30 02:19:16;;;;;;;15.43;5.07;;;15.00;99.90;;;;;;5058796;28;20082;-81
2023/07/30 02:21:42;;;;;;;12.02;4.78;;;14.90;99.90;;;;;;5053104;28;20108;-80
2023/07/30 02:24:11;;;;;;;14.18;4.10;;;14.90;99.90;;;;;;5054004;28;20043;-81
2023/07/30 02:26:37;;;;;;;17.23;5.07;;;14.90;99.90;;;;;;5054717;28;20075;-80
2023/07/30 02:29:02;;;;;;;16.40;3.95;;;14.90;99.90;;;;;;5052390;28;20036;-80
2023/07/30 02:31:28;;;;;;;15.73;3.88;;;14.90;99.90;;;;;;5054369;28;20044;-81
2023/07/30 02:33:53;;;;;;;16.92;4.75;;;14.90;99.90;;;;;;5051950;28;20183;-81
2023/07/30 02:36:19;;;;;;;20.48;4.13;;;14.90;99.90;;;;;;5052780;28;20558;-81
2023/07/30 02:38:44;;;;;;;14.82;3.58;;;15.00;99.90;;;;;;5056268;28;20063;-81
2023/07/30 02:41:10;;;;;;;12.63;3.30;;;14.90;99.90;;;;;;5057412;28;20102;-81
2023/07/30 02:43:35;;;;;;;13.18;4.15;;;15.00;99.90;;;;;;5039600;28;20124;-80
2023/07/30 02:46:01;;;;;;;21.60;3.78;;;14.90;99.90;;;;;;5056131;28;20021;-81
2023/07/30 02:48:26;;;;;;;11.73;3.17;;;15.00;99.90;;;;;;5050947;28;20029;-80
2023/07/30 02:50:52;;;;;;;13.10;3.22;;;15.00;99.90;;;;;;5053501;28;20041;-80
2023/07/30 02:53:17;;;;;;;13.13;3.40;;;14.90;99.90;;;;;;5049447;28;20051;-80
2023/07/30 02:55:43;;;;;;;12.93;3.30;;;14.90;99.90;;;;;;5052060;28;20037;-80
2023/07/30 02:58:08;;;;;;;15.45;3.80;;;14.90;99.90;;;;;;5053751;28;20095;-81
2023/07/30 03:00:34;;;;;;;16.05;3.50;;;14.90;99.90;;;;;;5053365;28;20041;-81
2023/07/30 03:02:59;;;;;;;14.57;3.58;;;14.90;99.90;;;;;;5050687;28;20056;-81
2023/07/30 03:05:27;;;;;;;20.83;4.57;;;14.90;99.90;;;;;;5054666;28;20040;-80
2023/07/30 03:07:53;;;;;;;13.18;3.08;;;14.90;99.90;;;;;;5054591;28;20076;-79
2023/07/30 03:10:18;;;;;;;14.05;3.08;;;14.90;99.90;;;;;;5054846;28;20076;-80
2023/07/30 03:12:44;;;;;;;12.40;3.15;;;14.90;99.90;;;;;;5051781;28;20029;-80
2023/07/30 03:15:09;;;;;;;11.73;3.42;;;14.90;99.90;;;;;;5055371;28;20045;-80
2023/07/30 03:17:35;;;;;;;14.13;3.35;;;14.90;99.90;;;;;;5050198;28;20048;-80
2023/07/30 03:20:01;;;;;;;12.70;3.10;;;14.90;99.90;;;;;;5054260;28;20051;-81
2023/07/30 03:22:26;;;;;;;14.50;3.40;;;14.90;99.90;;;;;;5052077;28;20028;-81
2023/07/30 03:24:52;;;;;;;14.32;3.40;;;14.90;99.90;;;;;;5051279;28;20040;-80
2023/07/30 03:27:17;;;;;;;17.58;3.53;;;14.90;99.90;;;;;;5052949;28;20365;-81
2023/07/30 03:29:43;;;;;;;11.43;3.20;;;14.90;99.90;;;;;;5057122;28;20689;-80
2023/07/30 03:32:09;;;;;;;19.58;3.80;;;14.80;99.90;;;;;;5057971;28;20029;-81
2023/07/30 03:34:34;;;;;;;14.68;3.63;;;14.90;99.90;;;;;;5052857;28;20049;-80
2023/07/30 03:37:02;;;;;;;15.20;3.38;;;14.90;99.90;;;;;;5054895;28;20071;-81
2023/07/30 03:39:28;;;;;;;16.98;3.28;;;14.90;99.90;;;;;;5056234;28;20143;-81
2023/07/30 03:41:53;;;;;;;13.68;4.10;;;14.80;99.90;;;;;;5049534;28;20188;-80
2023/07/30 03:44:19;;;;;;;10.40;2.70;;;14.80;99.90;;;;;;5052891;28;20293;-81
2023/07/30 03:46:45;;;;;;;11.63;3.30;;;14.80;99.90;;;;;;5051802;28;20503;-79
2023/07/30 03:49:11;;;;;;;12.02;2.63;;;14.80;99.90;;;;;;5054613;28;20491;-81
2023/07/30 03:51:38;;;;;;;11.52;3.20;;;14.80;99.90;;;;;;5052787;28;20056;-80
2023/07/30 03:54:04;;;;;;;16.08;3.22;;;14.70;99.90;;;;;;5053346;28;20040;-81
2023/07/30 03:56:30;;;;;;;14.85;3.63;;;14.80;99.90;;;;;;5050767;28;20609;-80
2023/07/30 03:58:55;;;;;;;12.43;3.13;;;14.70;99.90;;;;;;5049328;28;20667;-81
2023/07/30 04:01:21;;;;;;;15.27;3.33;;;14.70;99.90;;;;;;5059405;28;20096;-81
2023/07/30 04:03:46;;;;;;;13.02;3.33;;;14.70;99.90;;;;;;5040750;28;20047;-80
2023/07/30 04:06:12;;;;;;;14.45;3.67;;;14.70;99.90;;;;;;5054821;28;20029;-81
2023/07/30 04:08:38;;;;;;;12.95;3.08;;;14.70;99.90;;;;;;5050865;28;20118;-80
2023/07/30 04:11:03;;;;;;;14.65;2.83;;;14.70;99.90;;;;;;5056003;28;20051;-81
2023/07/30 04:13:29;;;;;;;10.60;2.67;;;14.70;99.90;;;;;;5054266;28;20041;-80
2023/07/30 04:15:54;;;;;;;13.45;3.42;;;14.70;99.90;;;;;;5052708;28;20040;-80
2023/07/30 04:18:20;;;;;;;10.18;2.83;;;14.70;99.90;;;;;;5053365;28;20028;-81
2023/07/30 04:20:45;;;;;;;16.20;4.10;;;14.70;99.90;;;;;;5051920;28;20033;-81
2023/07/30 04:23:11;;;;;;;11.57;2.70;;;14.80;99.90;;;;;;5049921;28;20043;-81
2023/07/30 04:25:36;;;;;;;9.52;2.92;;;14.70;99.90;;;;;;5055145;28;20045;-80
2023/07/30 04:28:02;;;;;;;15.82;3.25;;;14.80;99.90;;;;;;5050233;28;20037;-80
2023/07/30 04:30:27;;;;;;;19.85;4.38;;;14.80;99.90;;;;;;5053975;28;20100;-80
2023/07/30 04:32:53;;;;;;;19.60;4.50;;;14.80;99.90;;;;;;5053490;28;20040;-80
2023/07/30 04:35:18;;;;;;;13.38;2.67;;;14.90;99.90;;;;;;5050890;28;20086;-80
2023/07/30 04:37:44;;;;;;;19.60;4.03;;;14.90;99.90;;;;;;5051110;28;20075;-81
2023/07/30 04:40:10;;;;;;;12.80;3.38;;;15.00;99.90;;;;;;5050658;28;20099;-80
2023/07/30 04:42:36;;;;;;;15.52;4.15;;;15.10;99.90;;;;;;5053283;28;20501;-80
2023/07/30 04:45:01;;;;;;;10.43;4.05;;;15.20;99.90;;;;;;5051907;28;20127;-80
2023/07/30 04:47:27;;;;;;;15.82;3.90;;;15.20;99.90;;;;;;5055822;28;20053;-80
2023/07/30 04:49:52;;;;;;;9.70;3.58;;;15.30;99.90;;;;;;5056497;28;20048;-81
2023/07/30 04:52:19;;;;;;;18.00;3.33;;;15.30;99.90;;;;;;5054481;28;20045;-81
2023/07/30 04:54:44;;;;;;;16.30;3.28;;;15.40;99.90;;;;;;5052471;28;20047;-81
2023/07/30 04:57:10;;;;;;;12.35;2.63;;;15.50;99.90;;;;;;5048473;28;20049;-80
2023/07/30 04:59:35;;;;;;;13.68;4.07;;;15.50;99.90;;;;;;5049931;28;20168;-80
2023/07/30 05:02:01;;;;;;;15.13;3.60;;;15.70;99.90;;;;;;5054762;28;20044;-80
2023/07/30 05:04:26;;;;;;;10.35;3.10;;;15.60;99.90;;;;;;5054454;28;20128;-81
2023/07/30 05:06:52;;;;;;;14.13;3.17;;;15.60;99.90;;;;;;5052394;28;20067;-81
2023/07/30 05:09:18;;;;;;;16.30;3.28;;;15.60;99.90;;;;;;5052068;28;20043;-81
2023/07/30 05:11:43;;;;;;;15.63;4.40;;;15.70;99.90;;;;;;5052933;28;20055;-81
2023/07/30 05:14:09;;;;;;;11.88;3.63;;;15.70;99.90;;;;;;5051622;28;20048;-80
2023/07/30 05:16:36;;;;;;;13.88;3.25;;;15.70;99.90;;;;;;5051098;28;20710;-80
2023/07/30 05:19:01;;;;;;;11.95;2.88;;;15.70;99.90;;;;;;5050472;28;20041;-81
2023/07/30 05:21:27;;;;;;;12.77;3.03;;;15.80;99.90;;;;;;5049738;28;20059;-80
2023/07/30 05:23:53;;;;;;;9.45;3.38;;;15.80;99.90;;;;;;5050058;28;20123;-80
2023/07/30 05:26:18;;;;;;;13.13;4.05;;;15.80;99.90;;;;;;5035850;28;20033;-80
2023/07/30 05:28:44;;;;;;;13.45;3.58;;;15.90;99.90;;;;;;5047676;28;20035;-81
2023/07/30 05:31:09;;;;;;;10.63;3.55;;;15.90;99.90;;;;;;5034523;28;20053;-80
2023/07/30 05:33:35;;;;;;;12.45;3.95;;;15.80;99.90;;;;;;5049846;28;20090;-80
2023/07/30 05:36:00;;;;;;;14.60;3.13;;;16.00;99.90;;;;;;5052992;28;20044;-80
2023/07/30 05:38:26;;;;;;;16.27;4.03;;;16.00;99.90;;;;;;5049648;28;20123;-80
2023/07/30 05:40:51;;;;;;;13.63;3.78;;;16.00;99.90;;;;;;5051311;28;20053;-80
2023/07/30 05:43:17;;;;;;;13.75;4.32;;;16.10;99.90;;;;;;5050722;28;20040;-80
2023/07/30 05:45:43;;;;;;;14.38;3.35;;;16.10;99.90;;;;;;5050933;28;20582;-80
2023/07/30 05:48:09;;;;;;;16.42;4.47;;;16.10;99.90;;;;;;5052653;28;20106;-80
2023/07/30 05:50:34;;;;;;;12.98;4.28;;;16.20;99.90;;;;;;5050500;28;20071;-80
2023/07/30 05:53:00;;;;;;;14.90;4.50;;;16.30;99.90;;;;;;5018857;28;1025025;-80
2023/07/30 05:55:25;;;;;;;19.40;4.38;;;16.30;99.90;;;;;;5065475;28;20045;-80
2023/07/30 05:57:53;;;;;;;12.98;4.45;;;16.40;99.90;;;;;;5047960;28;20450;-79
2023/07/30 06:00:19;;;;;;;12.25;3.80;;;16.40;99.90;;;;;;5048341;28;20041;-80
2023/07/30 06:02:44;;;;;;;21.67;4.30;;;16.50;99.90;;;;;;5048370;28;20101;-81
2023/07/30 06:05:10;;;;;;;19.92;5.38;;;16.50;99.90;;;;;;5048227;28;20029;-80
2023/07/30 06:07:35;;;;;;;16.15;4.60;;;16.50;99.90;;;;;;5048841;28;20569;-79
2023/07/30 06:10:01;;;;;;;13.70;4.20;;;16.50;99.90;;;;;;5048348;28;20408;-80
2023/07/30 06:12:27;;;;;;;13.70;4.30;;;16.50;99.90;;;;;;5048071;28;20043;-79
2023/07/30 06:14:52;;;;;;;19.27;4.65;;;16.60;99.90;;;;;;5044872;28;20132;-79
2023/07/30 06:17:18;;;;;;;19.73;4.78;;;16.60;99.90;;;;;;5048062;28;20048;-79
2023/07/30 06:19:43;;;;;;;15.60;4.13;;;16.60;99.90;;;;;;5049334;28;20051;-80
2023/07/30 06:22:09;;;;;;;16.25;5.30;;;16.60;99.90;;;;;;5044993;28;20070;-79
2023/07/30 06:24:34;;;;;;;12.73;2.90;;;16.60;99.90;;;;;;5053881;28;20522;-81
2023/07/30 06:27:00;;;;;;;20.13;4.05;;;16.60;99.90;;;;;;5050773;28;20045;-80
2023/07/30 06:29:26;;;;;;;21.02;4.53;;;16.60;99.90;;;;;;5053342;28;20132;-81
2023/07/30 06:31:51;;;;;;;15.10;3.40;;;16.60;99.90;;;;;;5048167;28;20037;-81
2023/07/30 06:34:17;;;;;;;17.63;4.03;;;16.70;99.90;;;;;;5052742;28;20048;-81
2023/07/30 06:36:42;;;;;;;14.38;5.13;;;16.70;99.90;;;;;;5054150;28;20028;-81
2023/07/30 06:39:08;;;;;;;15.45;4.60;;;16.70;99.90;;;;;;5039652;28;20170;-81
2023/07/30 06:41:33;;;;;;;16.27;3.53;;;16.80;99.90;;;;;;5052838;28;20098;-80
2023/07/30 06:43:59;;;;;;;15.63;3.58;;;17.10;99.90;;;;;;5051078;28;20110;-80
2023/07/30 06:46:24;;;;;;;16.15;3.45;;;17.30;99.90;;;;;;5053860;28;20525;-81
2023/07/30 06:48:50;;;;;;;15.70;3.38;;;17.60;99.90;;;;;;5055051;28;20047;-81
2023/07/30 06:51:19;;;;;;;12.98;3.95;;;17.80;99.90;;;;;;5039341;28;20423;-80
2023/07/30 06:53:44;;;;;;;9.77;4.00;;;17.90;99.90;;;;;;5054193;28;20050;-80
2023/07/30 06:56:10;;;;;;;17.27;3.75;;;18.10;99.90;;;;;;5054775;28;20049;-80
2023/07/30 06:58:35;;;;;;;12.15;3.53;;;18.40;99.90;;;;;;5054335;28;20045;-80
2023/07/30 07:01:01;;;;;;;13.43;3.80;;;18.90;99.90;;;;;;5054445;28;20072;-81
2023/07/30 07:03:26;;;;;;;16.90;4.32;;;19.50;99.90;;;;;;5053034;28;20444;-78
2023/07/30 07:05:54;;;;;;;12.70;3.78;;;20.00;99.90;;;;;;5055126;28;20037;-79
2023/07/30 07:08:20;;;;;;;12.18;3.00;;;20.50;99.90;;;;;;5054430;28;20516;-80
2023/07/30 07:10:45;;;;;;;11.65;3.22;;;20.60;99.90;;;;;;5054514;28;20045;-80
2023/07/30 07:13:14;;;;;;;15.18;3.63;;;20.20;99.90;;;;;;5053289;28;20423;-81
2023/07/30 07:15:43;;;;;;;10.13;3.17;;;20.10;99.90;;;;;;5053227;28;20110;-81
2023/07/30 07:18:09;;;;;;;10.95;2.78;;;20.40;99.90;;;;;;5055855;28;20074;-82
2023/07/30 07:20:35;;;;;;;16.33;3.80;;;20.90;99.90;;;;;;5051545;28;20093;-80
2023/07/30 07:23:01;;;;;;;14.98;3.30;;;21.00;99.90;;;;;;5052105;28;20045;-81
2023/07/30 07:25:27;;;;;;;10.68;3.22;;;21.10;99.90;;;;;;5053924;28;20040;-79
2023/07/30 07:27:52;;;;;;;12.60;3.30;;;21.40;99.90;;;;;;5055404;28;20033;-80
2023/07/30 07:30:18;;;;;;;10.00;3.20;;;21.20;99.90;;;;;;5053476;28;20116;-81
2023/07/30 07:32:43;;;;;;;12.40;3.40;;;20.80;99.90;;;;;;5039598;28;20033;-80
2023/07/30 07:35:10;;;;;;;14.50;3.70;;;20.50;99.90;;;;;;5053740;28;20068;-82
2023/07/30 07:37:57;;;;;;;11.90;3.80;;;20.20;99.90;;;;;;5054776;28;20036;-81
2023/07/30 07:40:22;;;;;;;13.77;3.80;;;20.30;99.90;;;;;;5054138;28;20037;-81
2023/07/30 07:42:48;;;;;;;11.65;3.22;;;20.10;99.90;;;;;;5052360;28;20056;-81
2023/07/30 07:48:55;;;;;;;13.85;3.53;;;20.00;99.90;;;;;;5050657;28;20131;-82
2023/07/30 07:51:43;;;;;;;9.45;3.03;;;20.10;99.90;;;;;;5048728;28;20076;-83
2023/07/30 07:57:42;;;;;;;14.60;3.42;;;20.50;99.90;;;;;;5061254;28;20558;-84
2023/07/30 08:00:08;;;;;;;14.02;3.10;;;20.60;99.90;;;;;;5017560;28;20080;-84
2023/07/30 08:02:43;;;;;;;14.70;3.03;;;20.90;99.90;;;;;;5056611;28;20064;-82
2023/07/30 08:05:09;;;;;;;12.38;2.95;;;20.90;99.90;;;;;;5039833;28;20089;-85
2023/07/30 08:07:35;;;;;;;10.93;2.85;;;20.90;99.90;;;;;;5033927;28;20037;-85
2023/07/30 08:10:01;;;;;;;11.63;3.28;;;20.50;99.90;;;;;;5057682;28;20064;-84
2023/07/30 08:12:26;;;;;;;14.52;3.50;;;20.30;99.90;;;;;;5046089;28;20158;-82
2023/07/30 08:14:56;;;;;;;13.60;2.97;;;20.00;99.90;;;;;;5058113;28;20666;-82
2023/07/30 08:17:22;;;;;;;15.55;3.03;;;19.80;99.90;;;;;;5061412;28;20072;-83
2023/07/30 08:19:47;;;;;;;11.00;3.17;;;19.60;99.90;;;;;;5063427;28;20045;-82
2023/07/30 08:22:13;;;;;;;12.38;3.17;;;19.40;99.90;;;;;;5063905;28;20078;-82
2023/07/30 08:24:38;;;;;;;13.73;2.78;;;19.10;99.90;;;;;;5060992;28;20079;-81
2023/07/30 08:27:05;;;;;;;10.25;2.58;;;18.90;99.90;;;;;;5063831;28;20036;-80
2023/07/30 08:29:31;;;;;;;18.58;4.07;;;18.60;99.90;;;;;;5062402;28;20043;-81
2023/07/30 08:31:56;;;;;;;17.52;3.25;;;18.30;99.90;;;;;;5060756;28;20100;-80
2023/07/30 08:34:23;;;;;;;12.07;2.63;;;18.00;99.90;;;;;;5059133;28;20684;-81
2023/07/30 08:36:48;;;;;;;6.53;1.90;;;17.70;99.90;;;;;;5054446;28;20041;-80
2023/07/30 08:39:14;;;;;;;12.07;2.60;;;17.50;99.90;;;;;;5053127;28;20514;-82
2023/07/30 08:41:40;;;;;;;11.35;2.70;;;17.50;99.90;;;;;;5058160;28;20105;-82
2023/07/30 08:44:06;;;;;;;11.45;2.25;;;17.10;99.90;;;;;;5042853;28;20048;-82
2023/07/30 08:46:32;;;;;;;10.00;2.17;;;17.00;99.90;;;;;;5057619;28;20131;-82
2023/07/30 08:48:57;;;;;;;6.70;2.10;;;16.70;99.90;;;;;;5055131;28;20061;-82
2023/07/30 08:51:25;;;;;;;12.63;2.22;;;16.70;99.90;;;;;;5053782;28;20048;-82
2023/07/30 08:53:51;;;;;;;14.98;3.15;;;16.50;99.90;;;;;;5051876;28;20045;-83
2023/07/30 08:56:17;;;;;;;12.30;3.00;;;16.40;99.90;;;;;;5051190;28;20049;-83
2023/07/30 08:58:45;;;;;;;9.73;2.05;;;16.30;99.90;;;;;;5031813;28;20049;-84
2023/07/30 09:01:31;;;;;;;12.50;2.92;;;16.20;99.90;;;;;;5053624;28;20056;-85
2023/07/30 09:04:00;;;;;;;14.25;2.65;;;16.20;99.90;;;;;;5047294;28;20491;-84
2023/07/30 09:06:26;;;;;;;11.52;2.53;;;16.60;99.90;;;;;;5052203;28;20049;-85
2023/07/30 09:08:52;;;;;;;16.95;2.22;;;16.10;99.90;;;;;;5048822;28;20044;-83
2023/07/30 09:11:17;;;;;;;6.63;1.67;;;16.20;99.90;;;;;;5029844;28;20073;-83
2023/07/30 09:13:43;;;;;;;9.38;2.25;;;16.20;99.90;;;;;;5049266;28;20122;-83
2023/07/30 09:16:14;;;;;;;8.38;1.77;;;16.20;99.90;;;;;;5048433;28;20051;-83
2023/07/30 09:18:45;;;;;;;12.93;2.78;;;16.20;99.90;;;;;;5046367;28;21715;-83
2023/07/30 09:21:13;;;;;;;11.77;2.35;;;16.10;99.90;;;;;;5046700;28;20098;-83
2023/07/30 09:23:48;;;;;;;7.45;1.80;;;16.10;99.90;;;;;;5040418;28;20543;-82
2023/07/30 09:26:13;;;;;;;11.20;2.80;;;16.10;99.90;;;;;;5029191;28;20392;-82
2023/07/30 09:28:40;;;;;;;12.48;2.47;;;16.10;99.90;;;;;;5028884;28;20064;-82
2023/07/30 09:31:07;;;;;;;15.10;3.20;;;16.10;99.90;;;;;;5032980;28;20059;-81
2023/07/30 09:33:33;;;;;;;16.15;2.92;;;16.10;99.90;;;;;;5065619;28;20049;-83
2023/07/30 09:36:03;;;;;;;8.95;1.83;;;16.10;99.90;;;;;;5050297;28;20041;-83
2023/07/30 09:38:30;;;;;;;11.98;1.88;;;16.00;99.90;;;;;;5043983;28;20056;-83
2023/07/30 09:41:02;;;;;;;5.93;1.40;;;16.00;99.90;;;;;;5053838;28;20129;-82
2023/07/30 09:43:31;;;;;;;4.00;1.00;;;16.00;99.90;;;;;;5051471;28;20087;-82
2023/07/30 09:46:05;;;;;;;4.60;0.90;;;16.00;99.90;;;;;;5032052;28;20533;-83
2023/07/30 09:48:33;;;;;;;4.15;0.80;;;16.10;99.90;;;;;;5052370;28;20053;-82
2023/07/30 09:51:02;;;;;;;4.70;1.20;;;16.10;99.90;;;;;;5048064;28;20079;-83
2023/07/30 09:53:29;;;;;;;9.88;2.30;;;16.30;99.90;;;;;;5045736;28;20523;-83
2023/07/30 09:55:55;;;;;;;7.70;1.98;;;16.20;99.90;;;;;;5031381;28;20171;-84
2023/07/30 09:58:21;;;;;;;6.72;1.92;;;16.30;99.90;;;;;;5053948;28;20057;-83
2023/07/30 10:00:48;;;;;;;6.10;1.58;;;16.30;99.90;;;;;;5053212;28;20053;-83
2023/07/30 10:03:18;;;;;;;8.57;1.40;;;16.40;99.90;;;;;;5055727;28;20048;-82
2023/07/30 10:05:45;;;;;;;4.65;1.42;;;16.50;99.90;;;;;;5055294;28;20051;-82
2023/07/30 10:08:22;;;;;;;3.85;1.40;;;16.40;99.90;;;;;;5052772;28;20033;-82
2023/07/30 10:10:49;;;;;;;8.80;1.85;;;16.50;99.90;;;;;;5053114;28;20661;-82
2023/07/30 10:13:16;;;;;;;8.35;2.35;;;16.60;99.90;;;;;;5053029;28;20045;-83
2023/07/30 10:15:45;;;;;;;6.90;1.73;;;16.70;99.90;;;;;;5053116;28;20053;-79
2023/07/30 10:18:11;;;;;;;6.32;1.63;;;16.90;99.90;;;;;;5047683;28;20036;-79
2023/07/30 10:20:37;;;;;;;4.90;1.17;;;17.10;99.90;;;;;;5047695;28;20048;-79
2023/07/30 10:23:04;;;;;;;9.27;1.42;;;17.40;99.90;;;;;;5042954;28;20037;-78
2023/07/30 10:25:46;;;;;;;5.00;1.00;;;17.70;99.90;;;;;;5045788;28;20170;-79
2023/07/30 10:28:30;;;;;;;8.82;1.10;;;18.00;99.90;;;;;;5045931;28;20033;-79
2023/07/30 10:31:04;;;;;;;4.85;1.92;;;18.40;99.90;;;;;;5047063;28;20102;-80
2023/07/30 10:33:49;;;;;;;6.20;1.13;;;18.60;99.90;;;;;;5048353;28;20033;-81
2023/07/30 10:36:18;;;;;;;9.55;2.17;;;18.80;99.90;;;;;;5054654;28;20088;-83
2023/07/30 10:38:44;;;;;;;11.82;2.17;;;19.00;99.90;;;;;;5054967;28;20041;-83
2023/07/30 10:41:13;;;;;;;7.40;2.28;;;19.20;99.90;;;;;;5052994;28;20166;-82
2023/07/30 10:43:45;;;;;;;6.85;1.85;;;19.30;99.90;;;;;;5053211;28;20041;-82
2023/07/30 10:46:13;;;;;;;7.32;1.98;;;19.60;99.90;;;;;;5049227;28;20041;-82
2023/07/30 10:48:41;;;;;;;8.23;1.90;;;19.80;99.90;;;;;;5051840;28;20044;-84
2023/07/30 10:51:09;;;;;;;7.53;1.50;;;20.00;99.90;;;;;;5053127;28;20053;-82
2023/07/30 10:53:39;;;;;;;6.63;1.45;;;20.20;99.90;;;;;;5051119;28;20099;-82
2023/07/30 10:56:06;;;;;;;8.80;1.70;;;20.40;99.90;;;;;;5051284;28;20057;-81
2023/07/30 10:58:34;;;;;;;8.80;1.45;;;20.50;99.90;;;;;;5031881;28;20056;-82
2023/07/30 11:01:07;;;;;;;10.88;1.13;;;20.50;99.90;;;;;;5048449;28;20043;-83
2023/07/30 11:03:34;;;;;;;8.50;1.60;;;20.70;99.90;;;;;;5030320;28;20041;-84
2023/07/30 11:06:00;;;;;;;6.25;1.33;;;20.80;99.90;;;;;;5054712;28;20139;-85
2023/07/30 11:08:53;;;;;;;12.70;1.50;;;20.90;99.90;;;;;;5020062;28;20045;-81
2023/07/30 11:11:18;;;;;;;6.00;1.42;;;20.90;99.90;;;;;;5042434;28;20075;-79
2023/07/30 11:13:46;;;;;;;5.72;1.23;;;20.90;99.90;;;;;;5049869;28;20765;-82
2023/07/30 11:16:13;;;;;;;11.48;2.25;;;21.00;99.90;;;;;;5049183;28;20041;-80
2023/07/30 11:18:41;;;;;;;7.80;1.50;;;20.90;99.90;;;;;;5048254;28;20122;-81
2023/07/30 11:21:08;;;;;;;5.18;1.00;;;20.60;99.90;;;;;;5032942;28;20040;-82
2023/07/30 11:23:35;;;;;;;9.38;1.75;;;20.70;99.90;;;;;;5048796;28;20049;-81
2023/07/30 11:26:03;;;;;;;8.93;1.85;;;20.80;99.90;;;;;;5045373;28;20048;-82
2023/07/30 11:28:35;;;;;;;5.70;1.20;;;20.90;99.90;;;;;;5051817;28;20037;-81
2023/07/30 11:31:07;;;;;;;5.57;1.30;;;21.10;99.90;;;;;;5051279;28;20045;-81
2023/07/30 11:33:36;;;;;;;4.95;1.60;;;21.20;99.90;;;;;;5047771;28;20045;-81
2023/07/30 11:36:07;;;;;;;5.40;1.15;;;21.30;99.90;;;;;;5054545;28;20555;-82
2023/07/30 11:38:33;;;;;;;6.15;1.45;;;21.30;99.90;;;;;;5055249;28;20037;-79
2023/07/30 11:40:59;;;;;;;4.40;1.17;;;21.60;99.90;;;;;;5054601;28;20556;-79
2023/07/30 11:43:25;;;;;;;4.72;1.40;;;21.60;99.90;;;;;;5035829;28;20096;-80
2023/07/30 11:46:07;;;;;;;11.55;1.30;;;21.70;99.90;;;;;;5053614;28;20491;-78
2023/07/30 11:48:33;;;;;;;6.38;1.60;;;21.60;99.90;;;;;;5045391;28;20037;-79
2023/07/30 11:50:58;;;;;;;6.25;1.33;;;21.60;99.90;;;;;;5031022;28;20033;-79
2023/07/30 11:53:51;;;;;;;6.72;1.45;;;21.50;99.90;;;;;;5051922;28;20432;-82
2023/07/30 11:56:28;;;;;;;4.93;1.38;;;21.50;99.90;;;;;;5045697;28;20055;-79
2023/07/30 11:59:06;;;;;;;4.57;1.05;;;21.60;99.90;;;;;;5050291;28;20048;-78
2023/07/30 12:01:34;;;;;;;7.72;1.27;;;21.50;99.90;;;;;;5049185;28;20795;-80
2023/07/30 12:04:01;;;;;;;6.63;1.50;;;21.20;99.90;;;;;;5045487;28;20430;-79
2023/07/30 12:06:48;;;;;;;8.65;1.58;;;20.90;99.90;;;;;;5047349;28;20040;-78
2023/07/30 12:09:19;;;;;;;6.47;1.27;;;20.60;99.90;;;;;;5044763;28;20025;-79
2023/07/30 12:11:58;;;;;;;4.95;1.40;;;20.30;99.90;;;;;;5043707;28;20182;-78
2023/07/30 12:14:29;;;;;;;10.32;1.80;;;19.90;99.90;;;;;;5047698;28;20044;-83
2023/07/30 12:16:56;;;;;;;6.57;1.20;;;19.60;99.90;;;;;;5047792;28;20045;-80
2023/07/30 12:19:21;;;;;;;7.15;1.20;;;19.50;99.90;;;;;;5049609;28;20033;-80
2023/07/30 12:21:47;;;;;;;6.63;1.60;;;19.50;99.90;;;;;;5035783;28;20098;-79
2023/07/30 12:24:12;;;;;;;7.78;2.13;;;19.50;99.90;;;;;;5054044;28;21675;-84
2023/07/30 12:26:38;;;;;;;4.70;1.33;;;19.80;99.90;;;;;;5056286;28;20041;-80
2023/07/30 12:29:03;;;;;;;6.28;1.20;;;19.90;99.90;;;;;;5056520;28;20025;-80
2023/07/30 12:31:31;;;;;;;6.15;1.05;;;20.00;99.90;;;;;;5058341;28;20470;-81
2023/07/30 12:34:00;;;;;;;8.40;1.73;;;20.00;99.90;;;;;;5051968;28;21903;-79
2023/07/30 12:36:26;;;;;;;8.98;1.48;;;19.90;99.90;;;;;;5036444;28;20049;-81
2023/07/30 12:38:53;;;;;;;10.40;2.38;;;19.80;99.90;;;;;;5052012;28;20048;-81
2023/07/30 12:41:25;;;;;;;14.63;2.30;;;19.50;99.90;;;;;;5056326;28;20045;-81
2023/07/30 12:43:52;;;;;;;5.07;0.80;;;19.00;99.90;;;;;;5056234;28;20045;-81
2023/07/30 12:46:18;;;;;;;4.63;1.13;;;18.50;99.90;;;;;;5055797;28;20467;-81